To NAV CANADA Home Page Login to a new session Search on AWWS site Feedback and Comments Disclaimer Vers la page française équivalente Tips FAQ What's new on the site To the Forecasts and Observations / NOTAM section To "File a Flight Plan" website Publications and other links Update of the User's profile FIC Telephone Numbers My Weather Data Folder Route Weather Data Regional Weather Data Local Weather Data To the Forecasts and Observations / NOTAM section
Request Generated 05/25/2017 at 01:09:09 UTC . Weather information available at that time is displayed.

METAR/TAF

FORT ST. JOHN/BC    

METAR CYXJ 250100Z 31008G15KT 15SM SCT075TCU BKN140 18/01 A2977 RMK
TCU4AC1 VIRGA SLP093 DENSITY ALT 3300FT=
METAR CYXJ 250000Z 27016G31KT 250V310 15SM BKN070TCU BKN130 16/02
A2977 RMK TCU5AC2 VIRGA SLP095 DENSITY ALT 3000FT=
METAR CYXJ 242300Z 34012G19KT 290V360 15SM SCT065 BKN090 BKN120 18/01
A2976 RMK CU4AC1AC1 VIRGA SLP090 DENSITY ALT 3300FT=

TAF CYXJ 250038Z 2501/2513 28015G30KT P6SM BKN070 TEMPO 2501/2505
P6SM -SHRA PROB30 2501/2505 5SM TSRA SCT040 BKN070CB
FM250500 34010KT P6SM SCT080
BECMG 2510/2512 25008KT
RMK NXT FCST BY 250700Z=
Your time UTC time
Weather data provided by Environment Canada and NAV CANADA